createdAt,value
2022-07-27T00:01:16.408Z,0.95
2022-07-27T00:03:45.930Z,1.27
2022-07-27T00:06:14.671Z,0.90
2022-07-27T00:08:42.654Z,1.05
2022-07-27T00:11:12.363Z,0.82
2022-07-27T00:13:40.804Z,1.10
2022-07-27T00:16:09.074Z,0.85
2022-07-27T00:18:37.099Z,1.00
2022-07-27T00:21:05.166Z,1.25
2022-07-27T00:23:34.157Z,1.00
2022-07-27T00:26:02.128Z,0.75
2022-07-27T00:28:32.365Z,0.90
2022-07-27T00:31:00.413Z,1.33
2022-07-27T00:33:28.477Z,1.30
2022-07-27T00:35:56.410Z,0.60
2022-07-27T00:38:25.173Z,1.48
2022-07-27T00:40:53.796Z,0.80
2022-07-27T00:43:21.789Z,1.02
2022-07-27T00:45:51.294Z,0.85
2022-07-27T00:48:19.296Z,0.95
2022-07-27T00:50:48.077Z,1.10
2022-07-27T00:53:16.872Z,1.17
2022-07-27T00:55:45.910Z,1.13
2022-07-27T00:58:13.890Z,0.80
2022-07-27T01:00:41.978Z,1.10
2022-07-27T01:03:11.485Z,1.10
2022-07-27T01:05:42.986Z,1.20
2022-07-27T01:08:14.231Z,1.05
2022-07-27T01:10:43.376Z,1.27
2022-07-27T01:13:12.558Z,0.90
2022-07-27T01:15:42.239Z,1.10
2022-07-27T01:18:14.470Z,1.20
2022-07-27T01:20:43.053Z,1.17
2022-07-27T01:23:12.444Z,0.90
2022-07-27T01:25:43.140Z,1.13
2022-07-27T01:28:11.231Z,1.38
2022-07-27T01:30:39.268Z,1.00
2022-07-27T01:33:08.734Z,1.60
2022-07-27T01:35:37.754Z,1.00
2022-07-27T01:38:06.219Z,1.05
2022-07-27T01:40:36.856Z,1.00
2022-07-27T01:43:05.228Z,1.42
2022-07-27T01:45:33.297Z,0.98
2022-07-27T01:48:01.301Z,0.80
2022-07-27T01:50:29.875Z,1.02
2022-07-27T01:52:57.896Z,1.10
2022-07-27T01:55:25.944Z,1.55
2022-07-27T01:57:55.267Z,1.35
2022-07-27T02:00:23.253Z,0.82
2022-07-27T02:02:51.348Z,1.42
2022-07-27T02:05:19.377Z,0.98
2022-07-27T02:07:47.410Z,1.00
2022-07-27T02:10:15.402Z,0.98
2022-07-27T02:12:42.817Z,1.17
2022-07-27T02:15:14.849Z,1.38
2022-07-27T02:17:45.295Z,0.85
2022-07-27T02:20:16.032Z,1.00
2022-07-27T02:22:44.779Z,1.00
2022-07-27T02:25:14.013Z,1.27
2022-07-27T02:27:43.026Z,0.98
2022-07-27T02:30:14.007Z,0.93
2022-07-27T02:32:44.105Z,0.80
2022-07-27T02:35:18.810Z,1.17
2022-07-27T02:37:48.282Z,1.05
2022-07-27T02:40:17.266Z,1.48
2022-07-27T02:42:45.858Z,0.90
2022-07-27T02:45:15.609Z,1.00
2022-07-27T02:47:43.762Z,0.90
2022-07-27T02:50:12.145Z,1.00
2022-07-27T02:52:40.420Z,1.20
2022-07-27T02:55:09.758Z,1.73
2022-07-27T02:57:41.308Z,1.20
2022-07-27T03:00:12.565Z,1.38
2022-07-27T03:02:42.235Z,1.52
2022-07-27T03:05:12.619Z,1.10
2022-07-27T03:07:40.641Z,1.08
2022-07-27T03:10:09.701Z,1.23
2022-07-27T03:12:37.722Z,1.05
2022-07-27T03:15:06.833Z,1.70
2022-07-27T03:17:34.842Z,1.23
2022-07-27T03:20:04.326Z,1.23
2022-07-27T03:22:33.488Z,1.35
2022-07-27T03:25:01.651Z,1.52
2022-07-27T03:27:30.212Z,1.05
2022-07-27T03:29:58.413Z,1.42
2022-07-27T03:32:26.595Z,1.30
2022-07-27T03:34:54.582Z,1.90
2022-07-27T03:37:23.957Z,1.25
2022-07-27T03:39:51.920Z,1.20
2022-07-27T03:42:19.953Z,1.13
2022-07-27T03:44:47.955Z,1.27
2022-07-27T03:47:16.001Z,1.92
2022-07-27T03:49:43.946Z,1.80
2022-07-27T03:52:17.235Z,1.17
2022-07-27T03:54:47.401Z,1.38
2022-07-27T03:57:15.634Z,1.65
2022-07-27T03:59:43.675Z,1.38
2022-07-27T04:02:11.714Z,1.45
2022-07-27T04:04:39.850Z,1.50
2022-07-27T04:07:07.893Z,1.25
2022-07-27T04:09:37.673Z,1.40
2022-07-27T04:12:09.314Z,1.25
2022-07-27T04:14:37.311Z,1.23
2022-07-27T04:17:05.727Z,1.67
2022-07-27T04:19:33.726Z,1.40
2022-07-27T04:22:01.760Z,1.38
2022-07-27T04:24:29.738Z,1.20
2022-07-27T04:26:57.766Z,1.08
2022-07-27T04:29:27.180Z,1.50
2022-07-27T04:31:55.229Z,1.63
2022-07-27T04:34:23.285Z,1.63
2022-07-27T04:36:51.430Z,1.42
2022-07-27T04:39:19.474Z,1.73
2022-07-27T04:41:47.584Z,1.73
2022-07-27T04:44:15.572Z,1.15
2022-07-27T04:46:45.027Z,1.33
2022-07-27T04:49:13.442Z,1.10
2022-07-27T04:51:43.988Z,1.25
2022-07-27T04:54:12.350Z,1.23
2022-07-27T04:56:40.516Z,1.48
2022-07-27T04:59:08.769Z,1.50
2022-07-27T05:01:37.091Z,1.23
2022-07-27T05:04:06.789Z,1.25
2022-07-27T05:06:34.842Z,1.50
2022-07-27T05:09:03.303Z,1.23
2022-07-27T05:11:31.473Z,1.20
2022-07-27T05:13:59.490Z,1.60
2022-07-27T05:16:29.132Z,1.30
2022-07-27T05:18:57.560Z,1.30
2022-07-27T05:21:27.352Z,1.10
2022-07-27T05:23:55.747Z,1.35
2022-07-27T05:26:24.046Z,1.40
2022-07-27T05:28:52.019Z,1.40
2022-07-27T05:31:20.069Z,1.45
2022-07-27T05:33:49.917Z,1.23
2022-07-27T05:36:19.289Z,1.30
2022-07-27T05:38:48.656Z,1.50
2022-07-27T05:41:16.760Z,1.40
2022-07-27T05:43:44.705Z,1.40
2022-07-27T05:46:12.768Z,1.30
2022-07-27T05:48:40.812Z,1.50
2022-07-27T05:51:09.520Z,1.63
2022-07-27T05:53:37.606Z,1.23
2022-07-27T05:56:08.114Z,1.20
2022-07-27T05:58:36.196Z,1.55
2022-07-27T06:01:04.708Z,1.63
2022-07-27T06:03:32.807Z,1.17
2022-07-27T06:06:26.724Z,1.45
2022-07-27T06:08:55.263Z,1.63
2022-07-27T06:11:24.686Z,1.20
2022-07-27T06:13:52.942Z,1.55
2022-07-27T06:16:20.990Z,1.67
2022-07-27T06:18:49.006Z,1.05
2022-07-27T06:21:17.111Z,1.63
2022-07-27T06:23:48.314Z,1.50
2022-07-27T06:26:16.359Z,1.27
2022-07-27T06:28:45.700Z,1.10
2022-07-27T06:31:13.723Z,1.35
2022-07-27T06:33:42.018Z,1.17
2022-07-27T06:36:13.502Z,1.20
2022-07-27T06:38:41.466Z,1.05
2022-07-27T06:41:09.446Z,0.80
2022-07-27T06:43:37.412Z,0.93
2022-07-27T06:46:07.591Z,0.40
2022-07-27T06:48:35.815Z,1.00
2022-07-27T06:51:03.925Z,0.70
2022-07-27T06:53:36.157Z,0.75
2022-07-27T06:56:05.945Z,0.88
2022-07-27T06:58:34.102Z,0.80
2022-07-27T07:01:03.856Z,0.57
2022-07-27T07:03:33.329Z,0.65
2022-07-27T07:06:01.381Z,0.65
2022-07-27T07:08:29.361Z,0.95
2022-07-27T07:10:57.405Z,0.57
2022-07-27T07:13:25.357Z,0.45
2022-07-27T07:15:53.353Z,0.50
2022-07-27T07:18:21.355Z,0.50
2022-07-27T07:20:50.859Z,0.30
2022-07-27T07:23:18.829Z,0.40
2022-07-27T07:25:47.339Z,0.50
2022-07-27T07:28:15.309Z,0.30
2022-07-27T07:30:44.304Z,0.40
2022-07-27T07:33:12.297Z,0.25
2022-07-27T07:36:11.949Z,0.57
2022-07-27T07:38:31.266Z,0.40
2022-07-27T07:40:59.417Z,2.13
2022-07-27T07:43:28.840Z,0.73
2022-07-27T07:45:57.420Z,0.30
2022-07-27T07:48:25.408Z,0.35
2022-07-27T07:50:54.170Z,0.50
2022-07-27T07:53:22.820Z,0.40
2022-07-27T07:55:52.465Z,0.60
2022-07-27T07:58:21.174Z,0.38
2022-07-27T08:00:49.237Z,0.30
2022-07-27T08:03:17.461Z,0.30
2022-07-27T08:05:45.922Z,0.40
2022-07-27T08:08:13.976Z,0.40
2022-07-27T08:10:42.269Z,0.35
2022-07-27T08:13:11.626Z,0.35
2022-07-27T08:15:39.624Z,0.20
2022-07-27T08:18:09.585Z,0.30
2022-07-27T08:20:37.612Z,0.30
2022-07-27T08:23:05.800Z,0.20
2022-07-27T08:25:34.407Z,0.30
2022-07-27T08:28:02.855Z,0.20
2022-07-27T08:30:33.861Z,0.30
2022-07-27T08:33:04.229Z,0.20
2022-07-27T08:35:33.990Z,0.20
2022-07-27T08:38:04.258Z,0.20
2022-07-27T08:40:48.090Z,0.13
2022-07-27T08:43:23.821Z,0.20
2022-07-27T08:45:58.180Z,0.20
2022-07-27T08:48:27.106Z,0.10
2022-07-27T08:50:56.022Z,0.10
2022-07-27T08:53:24.978Z,0.10
2022-07-27T08:55:52.987Z,0.20
2022-07-27T08:58:21.081Z,0.60
2022-07-27T09:00:51.054Z,0.60
2022-07-27T09:03:22.779Z,0.22
2022-07-27T09:05:53.056Z,0.28
2022-07-27T09:08:24.426Z,0.38
2022-07-27T09:10:54.495Z,0.20
2022-07-27T09:13:25.492Z,0.10
2022-07-27T09:18:44.673Z,0.20
2022-07-27T09:21:15.839Z,0.10
2022-07-27T09:23:45.951Z,0.20
2022-07-27T09:26:31.685Z,0.10
2022-07-27T09:29:01.649Z,0.10
2022-07-27T09:31:30.425Z,0.10
2022-07-27T09:34:01.366Z,0.10
2022-07-27T09:36:30.856Z,0.30
2022-07-27T09:39:03.377Z,0.10
2022-07-27T09:41:42.356Z,0.10
2022-07-27T09:46:59.086Z,0.10
2022-07-27T09:49:30.989Z,0.20
2022-07-27T09:52:02.207Z,0.10
2022-07-27T09:54:43.525Z,0.13
2022-07-27T09:57:11.783Z,0.28
2022-07-27T09:59:39.822Z,0.20
2022-07-27T10:02:08.431Z,0.10
2022-07-27T10:04:37.907Z,0.10
2022-07-27T10:07:10.649Z,0.40
2022-07-27T10:09:41.145Z,0.20
2022-07-27T10:12:10.135Z,0.20
2022-07-27T10:14:38.134Z,0.20
2022-07-27T10:17:07.893Z,0.25
2022-07-27T10:19:45.278Z,0.10
2022-07-27T10:22:13.919Z,0.30
2022-07-27T10:24:42.219Z,0.40
2022-07-27T10:27:22.075Z,0.40
2022-07-27T10:29:51.422Z,0.75
2022-07-27T10:32:27.186Z,0.88
2022-07-27T10:34:56.576Z,0.50
2022-07-27T10:37:28.887Z,0.60
2022-07-27T10:40:12.446Z,0.40
2022-07-27T10:42:40.899Z,0.30
2022-07-27T10:45:11.349Z,0.30
2022-07-27T10:47:42.190Z,0.57
2022-07-27T10:50:33.103Z,0.63
2022-07-27T10:53:11.348Z,0.40
2022-07-27T10:55:57.406Z,0.20
2022-07-27T10:58:58.626Z,0.30
2022-07-27T11:01:26.719Z,0.32
2022-07-27T11:03:56.041Z,0.50
2022-07-27T11:07:04.689Z,0.20
2022-07-27T11:12:05.411Z,0.20
2022-07-27T11:14:44.249Z,0.20
2022-07-27T11:20:02.844Z,0.20
2022-07-27T11:25:21.723Z,0.20
2022-07-27T11:27:50.430Z,0.20
2022-07-27T11:30:27.258Z,0.20
2022-07-27T11:32:56.418Z,0.10
2022-07-27T11:35:25.687Z,0.43
2022-07-27T11:38:03.149Z,0.20
2022-07-27T11:41:12.797Z,0.20
2022-07-27T11:43:37.617Z,0.20
2022-07-27T11:46:16.403Z,0.10
2022-07-27T11:51:38.452Z,0.10
2022-07-27T11:54:10.624Z,0.30
2022-07-27T11:56:43.355Z,0.38
2022-07-27T11:59:14.862Z,0.30
2022-07-27T12:01:46.026Z,0.30
2022-07-27T12:04:18.933Z,0.20
2022-07-27T12:06:50.429Z,0.10
2022-07-27T12:09:19.912Z,0.20
2022-07-27T12:11:54.656Z,0.20
2022-07-27T12:14:35.155Z,0.20
2022-07-27T12:17:31.997Z,0.20
2022-07-27T12:20:02.465Z,0.20
2022-07-27T12:22:33.496Z,0.10
2022-07-27T12:25:16.413Z,0.30
2022-07-27T12:27:56.678Z,0.20
2022-07-27T12:30:33.362Z,0.10
2022-07-27T12:33:01.874Z,0.20
2022-07-27T12:35:37.920Z,0.10
2022-07-27T12:38:09.256Z,0.10
2022-07-27T12:40:47.667Z,0.28
2022-07-27T12:43:19.298Z,0.20
2022-07-27T12:45:48.948Z,0.10
2022-07-27T12:48:20.775Z,0.20
2022-07-27T12:50:57.801Z,0.10
2022-07-27T12:53:25.849Z,0.10
2022-07-27T12:55:56.326Z,0.20
2022-07-27T12:58:24.614Z,0.30
2022-07-27T13:00:53.092Z,0.57
2022-07-27T13:03:21.195Z,0.22
2022-07-27T13:05:49.629Z,0.25
2022-07-27T13:08:17.706Z,0.30
2022-07-27T13:10:45.935Z,0.20
2022-07-27T13:13:15.289Z,0.55
2022-07-27T13:15:43.313Z,0.30
2022-07-27T13:18:11.287Z,0.40
2022-07-27T13:20:39.269Z,0.70
2022-07-27T13:23:08.898Z,0.38
2022-07-27T13:25:42.767Z,0.30
2022-07-27T13:28:11.425Z,0.22
2022-07-27T13:30:40.921Z,0.20
2022-07-27T13:33:09.173Z,0.30
2022-07-27T13:35:37.202Z,0.52
2022-07-27T13:38:05.249Z,0.52
2022-07-27T13:40:33.328Z,0.50
2022-07-27T13:43:01.251Z,0.30
2022-07-27T13:45:29.342Z,0.20
2022-07-27T13:48:13.274Z,0.20
2022-07-27T13:50:41.513Z,0.30
2022-07-27T13:53:09.506Z,0.40
2022-07-27T13:55:43.706Z,0.40
2022-07-27T13:58:12.794Z,0.30
2022-07-27T14:00:41.134Z,0.40
2022-07-27T14:03:09.635Z,0.40
2022-07-27T14:05:43.575Z,0.50
2022-07-27T14:08:18.338Z,0.68
2022-07-27T14:10:46.502Z,0.65
2022-07-27T14:13:16.777Z,0.90
2022-07-27T14:15:53.209Z,0.50
2022-07-27T14:18:27.252Z,0.50
2022-07-27T14:20:58.306Z,0.28
2022-07-27T14:23:28.273Z,0.57
2022-07-27T14:25:57.435Z,0.40
2022-07-27T14:28:26.256Z,0.30
2022-07-27T14:30:54.765Z,0.20
2022-07-27T14:33:23.577Z,0.32
2022-07-27T14:35:52.313Z,0.32
2022-07-27T14:38:28.341Z,0.88
2022-07-27T14:41:00.838Z,0.20
2022-07-27T14:43:29.455Z,0.20
2022-07-27T14:45:59.342Z,0.30
2022-07-27T14:48:48.864Z,0.40
2022-07-27T14:51:16.230Z,0.20
2022-07-27T14:53:46.155Z,0.25
2022-07-27T14:56:14.286Z,0.20
2022-07-27T14:58:42.305Z,0.20
2022-07-27T15:01:10.402Z,0.20
2022-07-27T15:03:38.410Z,0.20
2022-07-27T15:06:06.542Z,0.50
2022-07-27T15:08:34.572Z,0.28
2022-07-27T15:11:04.137Z,0.30
2022-07-27T15:13:32.262Z,0.30
2022-07-27T15:16:00.328Z,0.22
2022-07-27T15:18:28.354Z,0.73
2022-07-27T15:20:56.389Z,0.25
2022-07-27T15:23:24.518Z,0.25
2022-07-27T15:25:52.699Z,0.20
2022-07-27T15:28:22.162Z,0.20
2022-07-27T15:30:50.136Z,0.20
2022-07-27T15:33:18.190Z,0.20
2022-07-27T15:35:46.166Z,0.10
2022-07-27T15:38:14.190Z,0.32
2022-07-27T15:40:42.510Z,0.25
2022-07-27T15:43:13.358Z,0.30
2022-07-27T15:45:45.559Z,0.22
2022-07-27T15:48:13.927Z,0.32
2022-07-27T15:50:43.492Z,0.40
2022-07-27T15:53:13.182Z,0.40
2022-07-27T15:55:41.567Z,0.60
2022-07-27T15:58:09.661Z,0.30
2022-07-27T16:00:41.017Z,0.30
2022-07-27T16:03:11.645Z,0.50
2022-07-27T16:05:41.071Z,0.40
2022-07-27T16:08:10.178Z,0.30
2022-07-27T16:10:38.591Z,0.30
2022-07-27T16:13:06.665Z,0.40
2022-07-27T16:15:52.600Z,0.52
2022-07-27T16:18:22.862Z,0.30
2022-07-27T16:20:50.964Z,0.50
2022-07-27T16:23:21.819Z,0.50
2022-07-27T16:26:04.105Z,0.50
2022-07-27T16:28:34.958Z,0.25
2022-07-27T16:31:03.762Z,0.40
2022-07-27T16:33:33.265Z,0.30
2022-07-27T16:36:01.300Z,0.30
2022-07-27T16:38:29.594Z,0.30
2022-07-27T16:40:57.550Z,0.45
2022-07-27T16:43:38.753Z,0.50
2022-07-27T16:46:08.332Z,0.50
2022-07-27T16:48:41.714Z,0.30
2022-07-27T16:51:12.697Z,0.20
2022-07-27T16:53:42.307Z,0.45
2022-07-27T16:56:10.885Z,0.40
2022-07-27T16:58:39.531Z,0.38
2022-07-27T17:01:08.523Z,0.30
2022-07-27T17:03:37.926Z,0.40
2022-07-27T17:06:07.264Z,0.20
2022-07-27T17:08:36.365Z,0.30
2022-07-27T17:11:06.135Z,0.38
2022-07-27T17:13:35.343Z,0.30
2022-07-27T17:16:03.778Z,0.40
2022-07-27T17:18:39.078Z,0.50
2022-07-27T17:21:12.582Z,0.57
2022-07-27T17:23:40.997Z,0.50
2022-07-27T17:26:09.731Z,0.35
2022-07-27T17:28:40.343Z,0.20
2022-07-27T17:31:10.831Z,0.30
2022-07-27T17:33:39.562Z,0.40
2022-07-27T17:36:14.716Z,0.40
2022-07-27T17:38:44.292Z,0.20
2022-07-27T17:41:12.416Z,0.40
2022-07-27T17:43:40.762Z,0.40
2022-07-27T17:46:09.934Z,0.50
2022-07-27T17:48:39.238Z,0.25
2022-07-27T17:51:10.585Z,0.30
2022-07-27T17:53:39.474Z,0.80
2022-07-27T17:56:08.415Z,0.47
2022-07-27T17:58:37.461Z,0.50
2022-07-27T18:01:06.267Z,0.40
2022-07-27T18:03:34.813Z,0.30
2022-07-27T18:06:03.243Z,0.20
2022-07-27T18:08:33.074Z,0.75
2022-07-27T18:11:01.041Z,0.40
2022-07-27T18:13:38.828Z,0.30
2022-07-27T18:16:09.175Z,0.40
2022-07-27T18:18:37.973Z,0.30
2022-07-27T18:21:06.438Z,0.25
2022-07-27T18:23:36.317Z,0.40
2022-07-27T18:26:04.537Z,0.38
2022-07-27T18:28:38.959Z,0.75
2022-07-27T18:31:08.388Z,0.60
2022-07-27T18:33:37.093Z,0.52
2022-07-27T18:36:06.502Z,0.40
2022-07-27T18:38:35.907Z,0.30
2022-07-27T18:41:04.003Z,0.32
2022-07-27T18:43:32.149Z,0.60
2022-07-27T18:46:00.201Z,0.35
2022-07-27T18:48:28.834Z,0.50
2022-07-27T18:50:57.271Z,0.38
2022-07-27T18:53:25.470Z,0.60
2022-07-27T18:55:56.783Z,0.60
2022-07-27T18:58:25.604Z,0.75
2022-07-27T19:00:54.824Z,0.98
2022-07-27T19:03:23.942Z,1.30
2022-07-27T19:05:53.107Z,0.68
2022-07-27T19:08:21.380Z,0.70
2022-07-27T19:10:49.372Z,0.70
2022-07-27T19:13:18.816Z,0.60
2022-07-27T19:15:46.810Z,0.82
2022-07-27T19:18:14.752Z,0.32
2022-07-27T19:20:42.765Z,0.30
2022-07-27T19:23:12.266Z,0.80
2022-07-27T19:25:40.337Z,0.50
2022-07-27T19:28:08.297Z,0.52
2022-07-27T19:30:39.273Z,0.50
2022-07-27T19:33:07.358Z,0.80
2022-07-27T19:35:35.418Z,0.40
2022-07-27T19:38:03.594Z,0.60
2022-07-27T19:40:46.961Z,0.60
2022-07-27T19:43:15.883Z,0.47
2022-07-27T19:45:45.340Z,0.70
2022-07-27T19:48:13.377Z,2.10
2022-07-27T19:50:41.956Z,3.67
2022-07-27T19:53:10.084Z,1.10
2022-07-27T19:55:38.325Z,0.90
2022-07-27T19:58:06.386Z,1.00
2022-07-27T20:00:34.514Z,0.73
2022-07-27T20:03:04.059Z,0.70
2022-07-27T20:05:32.132Z,0.90
2022-07-27T20:08:00.168Z,0.70
2022-07-27T20:10:28.130Z,0.73
2022-07-27T20:12:56.144Z,0.80
2022-07-27T20:15:24.190Z,0.60
2022-07-27T20:17:52.247Z,0.65
2022-07-27T20:20:21.614Z,0.90
2022-07-27T20:22:49.927Z,0.90
2022-07-27T20:25:18.624Z,0.60
2022-07-27T20:27:47.485Z,0.70
2022-07-27T20:30:17.303Z,1.00
2022-07-27T20:32:45.989Z,0.60
2022-07-27T20:35:13.974Z,0.70
2022-07-27T20:37:43.936Z,0.68
2022-07-27T20:40:12.772Z,0.57
2022-07-27T20:42:41.267Z,1.15
2022-07-27T20:45:12.892Z,1.70
2022-07-27T20:47:41.410Z,0.90
2022-07-27T20:50:11.648Z,1.10
2022-07-27T20:52:40.506Z,0.80
2022-07-27T20:55:11.318Z,0.90
2022-07-27T20:57:39.361Z,1.00
2022-07-27T21:00:09.818Z,0.98
2022-07-27T21:02:38.020Z,0.70
2022-07-27T21:05:07.141Z,1.20
2022-07-27T21:07:35.410Z,3.58
2022-07-27T21:10:03.810Z,2.22
2022-07-27T21:12:33.250Z,1.42
2022-07-27T21:15:01.213Z,1.40
2022-07-27T21:17:29.242Z,1.30
2022-07-27T21:19:57.351Z,1.55
2022-07-27T21:22:25.297Z,1.10
2022-07-27T21:24:53.438Z,1.10
2022-07-27T21:27:22.310Z,1.10
2022-07-27T21:29:51.754Z,1.10
2022-07-27T21:32:20.242Z,1.23
2022-07-27T21:34:48.243Z,0.88
2022-07-27T21:37:16.205Z,1.10
2022-07-27T21:39:45.798Z,1.00
2022-07-27T21:42:13.839Z,0.95
2022-07-27T21:44:41.889Z,1.00
2022-07-27T21:47:14.115Z,1.05
2022-07-27T21:49:43.211Z,1.33
2022-07-27T21:52:12.265Z,0.80
2022-07-27T21:54:40.963Z,1.00
2022-07-27T21:57:09.075Z,1.00
2022-07-27T21:59:37.142Z,1.20
2022-07-27T22:02:05.454Z,1.00
2022-07-27T22:04:35.526Z,0.88
2022-07-27T22:07:04.896Z,0.80
2022-07-27T22:09:32.968Z,0.88
2022-07-27T22:12:01.045Z,1.20
2022-07-27T22:14:28.982Z,1.10
2022-07-27T22:16:57.061Z,0.80
2022-07-27T22:19:25.044Z,0.77
2022-07-27T22:21:54.378Z,0.85
2022-07-27T22:24:22.380Z,0.90
2022-07-27T22:26:50.388Z,0.70
2022-07-27T22:29:18.398Z,0.50
2022-07-27T22:31:46.437Z,0.68
2022-07-27T22:34:14.850Z,0.60
2022-07-27T22:36:43.226Z,0.70
2022-07-27T22:39:12.907Z,0.43
2022-07-27T22:41:41.511Z,0.55
2022-07-27T22:44:09.552Z,0.60
2022-07-27T22:46:37.595Z,0.85
2022-07-27T22:49:05.775Z,0.75
2022-07-27T22:51:49.688Z,0.60
2022-07-27T22:54:22.581Z,0.50
2022-07-27T22:56:50.646Z,1.15
2022-07-27T22:59:18.681Z,0.73
2022-07-27T23:01:48.153Z,0.88
2022-07-27T23:04:17.947Z,0.60
2022-07-27T23:06:46.436Z,0.60
2022-07-27T23:09:16.127Z,0.77
2022-07-27T23:11:45.605Z,0.70
2022-07-27T23:14:14.406Z,0.60
2022-07-27T23:16:43.074Z,0.45
2022-07-27T23:19:11.556Z,0.55
2022-07-27T23:21:39.707Z,0.57
2022-07-27T23:24:11.158Z,0.50
2022-07-27T23:26:41.647Z,0.80
2022-07-27T23:29:11.002Z,0.68
2022-07-27T23:31:39.053Z,0.68
2022-07-27T23:34:07.401Z,0.50
2022-07-27T23:36:35.444Z,0.40
2022-07-27T23:39:03.624Z,0.40
2022-07-27T23:41:31.651Z,0.60
2022-07-27T23:43:59.598Z,0.52
2022-07-27T23:46:29.228Z,0.65
2022-07-27T23:48:57.240Z,0.52
2022-07-27T23:51:25.470Z,0.45
2022-07-27T23:53:53.433Z,0.40
2022-07-27T23:56:21.395Z,0.40
2022-07-27T23:58:49.378Z,0.45
